sensor_id;sensor_type;location;lat;lon;timestamp;temperature;humidity
18513;DHT22;9385;48.380;9.744;2022-12-07T00:00:54;4.90;99.90
18513;DHT22;9385;48.380;9.744;2022-12-07T00:03:21;5.00;99.90
18513;DHT22;9385;48.380;9.744;2022-12-07T00:05:48;5.10;99.90
18513;DHT22;9385;48.380;9.744;2022-12-07T00:08:15;5.00;99.90
18513;DHT22;9385;48.380;9.744;2022-12-07T00:10:43;5.00;99.90
18513;DHT22;9385;48.380;9.744;2022-12-07T00:13:10;4.90;99.90
18513;DHT22;9385;48.380;9.744;2022-12-07T00:15:37;4.90;99.90
18513;DHT22;9385;48.380;9.744;2022-12-07T00:18:04;4.80;99.90
18513;DHT22;9385;48.380;9.744;2022-12-07T00:20:31;4.80;99.90
18513;DHT22;9385;48.380;9.744;2022-12-07T00:22:58;4.70;99.90
18513;DHT22;9385;48.380;9.744;2022-12-07T00:25:25;4.70;99.90
18513;DHT22;9385;48.380;9.744;2022-12-07T00:27:54;4.80;99.90
18513;DHT22;9385;48.380;9.744;2022-12-07T00:30:22;4.90;99.90
18513;DHT22;9385;48.380;9.744;2022-12-07T00:32:49;4.90;99.90
18513;DHT22;9385;48.380;9.744;2022-12-07T00:35:16;4.80;99.90
18513;DHT22;9385;48.380;9.744;2022-12-07T00:37:43;4.80;99.90
18513;DHT22;9385;48.380;9.744;2022-12-07T00:40:11;4.70;99.90
18513;DHT22;9385;48.380;9.744;2022-12-07T00:42:38;4.70;99.90
18513;DHT22;9385;48.380;9.744;2022-12-07T00:45:08;4.70;99.90
18513;DHT22;9385;48.380;9.744;2022-12-07T00:47:35;4.70;99.90
18513;DHT22;9385;48.380;9.744;2022-12-07T00:50:02;4.70;99.90
18513;DHT22;9385;48.380;9.744;2022-12-07T00:52:29;4.70;99.90
18513;DHT22;9385;48.380;9.744;2022-12-07T00:54:57;4.60;99.90
18513;DHT22;9385;48.380;9.744;2022-12-07T00:57:23;4.60;99.90
18513;DHT22;9385;48.380;9.744;2022-12-07T00:59:50;4.60;99.90
18513;DHT22;9385;48.380;9.744;2022-12-07T01:02:22;4.60;99.90
18513;DHT22;9385;48.380;9.744;2022-12-07T01:04:49;4.70;99.90
18513;DHT22;9385;48.380;9.744;2022-12-07T01:07:15;4.70;99.90
18513;DHT22;9385;48.380;9.744;2022-12-07T01:09:43;4.70;99.90
18513;DHT22;9385;48.380;9.744;2022-12-07T01:12:10;4.70;99.90
18513;DHT22;9385;48.380;9.744;2022-12-07T01:14:36;4.70;99.90
18513;DHT22;9385;48.380;9.744;2022-12-07T01:17:03;4.70;99.90
18513;DHT22;9385;48.380;9.744;2022-12-07T01:19:32;4.70;99.90
18513;DHT22;9385;48.380;9.744;2022-12-07T01:21:59;4.70;99.90
18513;DHT22;9385;48.380;9.744;2022-12-07T01:24:25;4.70;99.90
18513;DHT22;9385;48.380;9.744;2022-12-07T01:26:52;4.80;99.90
18513;DHT22;9385;48.380;9.744;2022-12-07T01:29:19;4.80;99.90
18513;DHT22;9385;48.380;9.744;2022-12-07T01:31:48;4.80;99.90
18513;DHT22;9385;48.380;9.744;2022-12-07T01:34:15;4.80;99.90
18513;DHT22;9385;48.380;9.744;2022-12-07T01:36:44;4.80;99.90
18513;DHT22;9385;48.380;9.744;2022-12-07T01:39:10;4.70;99.90
18513;DHT22;9385;48.380;9.744;2022-12-07T01:41:39;4.70;99.90
18513;DHT22;9385;48.380;9.744;2022-12-07T01:44:20;4.70;99.90
18513;DHT22;9385;48.380;9.744;2022-12-07T01:46:48;4.60;99.90
18513;DHT22;9385;48.380;9.744;2022-12-07T01:49:20;4.60;99.90
18513;DHT22;9385;48.380;9.744;2022-12-07T01:51:52;4.60;99.90
18513;DHT22;9385;48.380;9.744;2022-12-07T01:54:20;4.70;99.90
18513;DHT22;9385;48.380;9.744;2022-12-07T01:56:51;4.70;99.90
18513;DHT22;9385;48.380;9.744;2022-12-07T01:59:22;4.70;99.90
18513;DHT22;9385;48.380;9.744;2022-12-07T02:01:50;4.80;99.90
18513;DHT22;9385;48.380;9.744;2022-12-07T02:04:18;4.80;99.90
18513;DHT22;9385;48.380;9.744;2022-12-07T02:06:47;4.80;99.90
18513;DHT22;9385;48.380;9.744;2022-12-07T02:09:15;4.80;99.90
18513;DHT22;9385;48.380;9.744;2022-12-07T02:11:42;4.80;99.90
18513;DHT22;9385;48.380;9.744;2022-12-07T02:14:09;4.80;99.90
18513;DHT22;9385;48.380;9.744;2022-12-07T02:16:42;4.70;99.90
18513;DHT22;9385;48.380;9.744;2022-12-07T02:22:34;4.70;99.90
18513;DHT22;9385;48.380;9.744;2022-12-07T02:25:15;4.70;99.90
18513;DHT22;9385;48.380;9.744;2022-12-07T02:27:51;4.80;99.90
18513;DHT22;9385;48.380;9.744;2022-12-07T02:30:22;4.80;99.90
18513;DHT22;9385;48.380;9.744;2022-12-07T02:32:55;4.70;99.90
18513;DHT22;9385;48.380;9.744;2022-12-07T02:35:26;4.70;99.90
18513;DHT22;9385;48.380;9.744;2022-12-07T02:38:01;4.80;99.90
18513;DHT22;9385;48.380;9.744;2022-12-07T02:40:32;4.80;99.90
18513;DHT22;9385;48.380;9.744;2022-12-07T02:43:06;4.90;99.90
18513;DHT22;9385;48.380;9.744;2022-12-07T02:45:38;4.90;99.90
18513;DHT22;9385;48.380;9.744;2022-12-07T02:48:07;5.00;99.90
18513;DHT22;9385;48.380;9.744;2022-12-07T02:50:35;5.10;99.90
18513;DHT22;9385;48.380;9.744;2022-12-07T02:53:02;5.00;99.90
18513;DHT22;9385;48.380;9.744;2022-12-07T02:55:35;5.00;99.90
18513;DHT22;9385;48.380;9.744;2022-12-07T02:58:20;4.90;99.90
18513;DHT22;9385;48.380;9.744;2022-12-07T03:00:57;4.90;99.90
18513;DHT22;9385;48.380;9.744;2022-12-07T03:03:26;4.80;99.90
18513;DHT22;9385;48.380;9.744;2022-12-07T03:06:07;4.80;99.90
18513;DHT22;9385;48.380;9.744;2022-12-07T03:08:46;4.80;99.90
18513;DHT22;9385;48.380;9.744;2022-12-07T03:11:17;4.80;99.90
18513;DHT22;9385;48.380;9.744;2022-12-07T03:13:49;4.80;99.90
18513;DHT22;9385;48.380;9.744;2022-12-07T03:16:21;4.80;99.90
18513;DHT22;9385;48.380;9.744;2022-12-07T03:18:53;4.80;99.90
18513;DHT22;9385;48.380;9.744;2022-12-07T03:21:24;4.80;99.90
18513;DHT22;9385;48.380;9.744;2022-12-07T03:23:55;4.80;99.90
18513;DHT22;9385;48.380;9.744;2022-12-07T03:26:27;4.70;99.90
18513;DHT22;9385;48.380;9.744;2022-12-07T03:28:58;4.70;99.90
18513;DHT22;9385;48.380;9.744;2022-12-07T03:31:30;4.60;99.90
18513;DHT22;9385;48.380;9.744;2022-12-07T03:34:01;4.60;99.90
18513;DHT22;9385;48.380;9.744;2022-12-07T03:36:35;4.60;99.90
18513;DHT22;9385;48.380;9.744;2022-12-07T03:39:19;4.60;99.90
18513;DHT22;9385;48.380;9.744;2022-12-07T03:41:49;4.60;99.90
18513;DHT22;9385;48.380;9.744;2022-12-07T03:44:16;4.70;99.90
18513;DHT22;9385;48.380;9.744;2022-12-07T03:46:49;4.70;99.90
18513;DHT22;9385;48.380;9.744;2022-12-07T03:49:23;4.70;99.90
18513;DHT22;9385;48.380;9.744;2022-12-07T03:51:55;4.70;99.90
18513;DHT22;9385;48.380;9.744;2022-12-07T03:54:26;4.70;99.90
18513;DHT22;9385;48.380;9.744;2022-12-07T03:56:55;4.70;99.90
18513;DHT22;9385;48.380;9.744;2022-12-07T03:59:24;4.80;99.90
18513;DHT22;9385;48.380;9.744;2022-12-07T04:01:55;4.80;99.90
18513;DHT22;9385;48.380;9.744;2022-12-07T04:04:22;4.80;99.90
18513;DHT22;9385;48.380;9.744;2022-12-07T04:06:49;4.80;99.90
18513;DHT22;9385;48.380;9.744;2022-12-07T04:09:16;4.80;99.90
18513;DHT22;9385;48.380;9.744;2022-12-07T04:11:43;4.80;99.90
18513;DHT22;9385;48.380;9.744;2022-12-07T04:14:10;4.70;99.90
18513;DHT22;9385;48.380;9.744;2022-12-07T04:16:47;4.70;99.90
18513;DHT22;9385;48.380;9.744;2022-12-07T04:19:17;4.70;99.90
18513;DHT22;9385;48.380;9.744;2022-12-07T04:21:44;4.70;99.90
18513;DHT22;9385;48.380;9.744;2022-12-07T04:24:12;4.70;99.90
18513;DHT22;9385;48.380;9.744;2022-12-07T04:26:40;4.80;99.90
18513;DHT22;9385;48.380;9.744;2022-12-07T04:29:06;4.80;99.90
18513;DHT22;9385;48.380;9.744;2022-12-07T04:31:34;4.80;99.90
18513;DHT22;9385;48.380;9.744;2022-12-07T04:34:01;4.80;99.90
18513;DHT22;9385;48.380;9.744;2022-12-07T04:36:29;4.80;99.90
18513;DHT22;9385;48.380;9.744;2022-12-07T04:38:56;4.90;99.90
18513;DHT22;9385;48.380;9.744;2022-12-07T04:41:24;4.80;99.90
18513;DHT22;9385;48.380;9.744;2022-12-07T04:43:54;4.70;99.90
18513;DHT22;9385;48.380;9.744;2022-12-07T04:46:22;4.60;99.90
18513;DHT22;9385;48.380;9.744;2022-12-07T04:48:49;4.60;99.90
18513;DHT22;9385;48.380;9.744;2022-12-07T04:51:19;4.60;99.90
18513;DHT22;9385;48.380;9.744;2022-12-07T04:53:48;4.60;99.90
18513;DHT22;9385;48.380;9.744;2022-12-07T04:56:16;4.60;99.90
18513;DHT22;9385;48.380;9.744;2022-12-07T04:58:44;4.60;99.90
18513;DHT22;9385;48.380;9.744;2022-12-07T05:01:13;4.60;99.90
18513;DHT22;9385;48.380;9.744;2022-12-07T05:03:40;4.60;99.90
18513;DHT22;9385;48.380;9.744;2022-12-07T05:06:08;4.60;99.90
18513;DHT22;9385;48.380;9.744;2022-12-07T05:08:36;4.60;99.90
18513;DHT22;9385;48.380;9.744;2022-12-07T05:11:06;4.60;99.90
18513;DHT22;9385;48.380;9.744;2022-12-07T05:13:33;4.60;99.90
18513;DHT22;9385;48.380;9.744;2022-12-07T05:16:00;4.60;99.90
18513;DHT22;9385;48.380;9.744;2022-12-07T05:18:27;4.60;99.90
18513;DHT22;9385;48.380;9.744;2022-12-07T05:20:54;4.60;99.90
18513;DHT22;9385;48.380;9.744;2022-12-07T05:23:21;4.60;99.90
18513;DHT22;9385;48.380;9.744;2022-12-07T05:25:48;4.60;99.90
18513;DHT22;9385;48.380;9.744;2022-12-07T05:28:16;4.60;99.90
18513;DHT22;9385;48.380;9.744;2022-12-07T05:30:43;4.60;99.90
18513;DHT22;9385;48.380;9.744;2022-12-07T05:33:10;4.60;99.90
18513;DHT22;9385;48.380;9.744;2022-12-07T05:35:37;4.50;99.90
18513;DHT22;9385;48.380;9.744;2022-12-07T05:38:04;4.60;99.90
18513;DHT22;9385;48.380;9.744;2022-12-07T05:40:31;4.60;99.90
18513;DHT22;9385;48.380;9.744;2022-12-07T05:42:58;4.60;99.90
18513;DHT22;9385;48.380;9.744;2022-12-07T05:45:25;4.50;99.90
18513;DHT22;9385;48.380;9.744;2022-12-07T05:47:52;4.50;99.90
18513;DHT22;9385;48.380;9.744;2022-12-07T05:50:19;4.60;99.90
18513;DHT22;9385;48.380;9.744;2022-12-07T05:52:46;4.60;99.90
18513;DHT22;9385;48.380;9.744;2022-12-07T05:55:13;4.60;99.90
18513;DHT22;9385;48.380;9.744;2022-12-07T05:57:40;4.50;99.90
18513;DHT22;9385;48.380;9.744;2022-12-07T06:00:28;4.50;99.90
18513;DHT22;9385;48.380;9.744;2022-12-07T06:02:54;4.40;99.90
18513;DHT22;9385;48.380;9.744;2022-12-07T06:05:20;4.40;99.90
18513;DHT22;9385;48.380;9.744;2022-12-07T06:07:47;4.40;99.90
18513;DHT22;9385;48.380;9.744;2022-12-07T06:10:14;4.40;99.90
18513;DHT22;9385;48.380;9.744;2022-12-07T06:12:41;4.40;99.90
18513;DHT22;9385;48.380;9.744;2022-12-07T06:15:09;4.40;99.90
18513;DHT22;9385;48.380;9.744;2022-12-07T06:17:39;4.40;99.90
18513;DHT22;9385;48.380;9.744;2022-12-07T06:20:07;4.40;99.90
18513;DHT22;9385;48.380;9.744;2022-12-07T06:22:34;4.40;99.90
18513;DHT22;9385;48.380;9.744;2022-12-07T06:25:01;4.30;99.90
18513;DHT22;9385;48.380;9.744;2022-12-07T06:27:29;4.30;99.90
18513;DHT22;9385;48.380;9.744;2022-12-07T06:29:58;4.30;99.90
18513;DHT22;9385;48.380;9.744;2022-12-07T06:32:25;4.30;99.90
18513;DHT22;9385;48.380;9.744;2022-12-07T06:34:53;4.30;99.90
18513;DHT22;9385;48.380;9.744;2022-12-07T06:37:20;4.30;99.90
18513;DHT22;9385;48.380;9.744;2022-12-07T06:39:47;4.30;99.90
18513;DHT22;9385;48.380;9.744;2022-12-07T06:42:14;4.30;99.90
18513;DHT22;9385;48.380;9.744;2022-12-07T06:44:41;4.30;99.90
18513;DHT22;9385;48.380;9.744;2022-12-07T06:47:07;4.20;99.90
18513;DHT22;9385;48.380;9.744;2022-12-07T06:49:35;4.20;99.90
18513;DHT22;9385;48.380;9.744;2022-12-07T06:52:03;4.20;99.90
18513;DHT22;9385;48.380;9.744;2022-12-07T06:54:31;4.20;99.90
18513;DHT22;9385;48.380;9.744;2022-12-07T06:56:58;4.20;99.90
18513;DHT22;9385;48.380;9.744;2022-12-07T06:59:25;4.10;99.90
18513;DHT22;9385;48.380;9.744;2022-12-07T07:01:52;4.10;99.90
18513;DHT22;9385;48.380;9.744;2022-12-07T07:04:18;4.10;99.90
18513;DHT22;9385;48.380;9.744;2022-12-07T07:06:45;4.00;99.90
18513;DHT22;9385;48.380;9.744;2022-12-07T07:09:14;3.90;99.90
18513;DHT22;9385;48.380;9.744;2022-12-07T07:11:40;3.80;99.90
18513;DHT22;9385;48.380;9.744;2022-12-07T07:14:07;3.80;99.90
18513;DHT22;9385;48.380;9.744;2022-12-07T07:16:34;3.70;99.90
18513;DHT22;9385;48.380;9.744;2022-12-07T07:19:01;3.70;99.90
18513;DHT22;9385;48.380;9.744;2022-12-07T07:21:28;3.70;99.90
18513;DHT22;9385;48.380;9.744;2022-12-07T07:23:55;3.60;99.90
18513;DHT22;9385;48.380;9.744;2022-12-07T07:26:24;3.60;99.90
18513;DHT22;9385;48.380;9.744;2022-12-07T07:28:50;3.60;99.90
18513;DHT22;9385;48.380;9.744;2022-12-07T07:31:17;3.50;99.90
18513;DHT22;9385;48.380;9.744;2022-12-07T07:33:45;3.50;99.90
18513;DHT22;9385;48.380;9.744;2022-12-07T07:36:12;3.50;99.90
18513;DHT22;9385;48.380;9.744;2022-12-07T07:38:40;3.50;99.90
18513;DHT22;9385;48.380;9.744;2022-12-07T07:41:06;3.50;99.90
18513;DHT22;9385;48.380;9.744;2022-12-07T07:43:35;3.60;99.90
18513;DHT22;9385;48.380;9.744;2022-12-07T07:46:02;3.50;99.90
18513;DHT22;9385;48.380;9.744;2022-12-07T07:48:28;3.60;99.90
18513;DHT22;9385;48.380;9.744;2022-12-07T07:50:55;3.60;99.90
18513;DHT22;9385;48.380;9.744;2022-12-07T07:53:22;3.60;99.90
18513;DHT22;9385;48.380;9.744;2022-12-07T07:55:52;3.70;99.90
18513;DHT22;9385;48.380;9.744;2022-12-07T07:58:20;3.70;99.90
18513;DHT22;9385;48.380;9.744;2022-12-07T08:00:48;3.90;99.90
18513;DHT22;9385;48.380;9.744;2022-12-07T08:03:15;3.90;99.90
18513;DHT22;9385;48.380;9.744;2022-12-07T08:05:42;3.90;99.90
18513;DHT22;9385;48.380;9.744;2022-12-07T08:08:09;3.90;99.90
18513;DHT22;9385;48.380;9.744;2022-12-07T08:10:36;4.00;99.90
18513;DHT22;9385;48.380;9.744;2022-12-07T08:13:03;4.00;99.90
18513;DHT22;9385;48.380;9.744;2022-12-07T08:15:40;4.10;99.90
18513;DHT22;9385;48.380;9.744;2022-12-07T08:18:09;4.10;99.90
18513;DHT22;9385;48.380;9.744;2022-12-07T08:20:37;4.10;99.90
18513;DHT22;9385;48.380;9.744;2022-12-07T08:23:04;4.20;99.90
18513;DHT22;9385;48.380;9.744;2022-12-07T08:25:32;4.30;99.90
18513;DHT22;9385;48.380;9.744;2022-12-07T08:27:59;4.40;99.90
18513;DHT22;9385;48.380;9.744;2022-12-07T08:30:27;4.40;99.90
18513;DHT22;9385;48.380;9.744;2022-12-07T08:32:54;4.30;99.90
18513;DHT22;9385;48.380;9.744;2022-12-07T08:35:22;4.30;99.90
18513;DHT22;9385;48.380;9.744;2022-12-07T08:37:49;4.40;99.90
18513;DHT22;9385;48.380;9.744;2022-12-07T08:40:16;4.40;99.90
18513;DHT22;9385;48.380;9.744;2022-12-07T08:42:47;4.40;99.90
18513;DHT22;9385;48.380;9.744;2022-12-07T08:45:16;4.40;99.90
18513;DHT22;9385;48.380;9.744;2022-12-07T08:47:45;4.40;99.90
18513;DHT22;9385;48.380;9.744;2022-12-07T08:50:14;4.50;99.90
18513;DHT22;9385;48.380;9.744;2022-12-07T08:52:42;4.40;99.90
18513;DHT22;9385;48.380;9.744;2022-12-07T08:55:11;4.40;99.90
18513;DHT22;9385;48.380;9.744;2022-12-07T08:57:39;4.50;99.90
18513;DHT22;9385;48.380;9.744;2022-12-07T09:00:07;4.60;99.90
18513;DHT22;9385;48.380;9.744;2022-12-07T09:02:34;4.70;99.90
18513;DHT22;9385;48.380;9.744;2022-12-07T09:05:01;4.80;99.90
18513;DHT22;9385;48.380;9.744;2022-12-07T09:07:30;4.80;99.90
18513;DHT22;9385;48.380;9.744;2022-12-07T09:09:59;4.80;99.90
18513;DHT22;9385;48.380;9.744;2022-12-07T09:12:26;4.90;99.90
18513;DHT22;9385;48.380;9.744;2022-12-07T09:14:52;4.90;99.90
18513;DHT22;9385;48.380;9.744;2022-12-07T09:17:19;4.90;99.90
18513;DHT22;9385;48.380;9.744;2022-12-07T09:19:46;5.00;99.90
18513;DHT22;9385;48.380;9.744;2022-12-07T09:22:13;4.90;99.90
18513;DHT22;9385;48.380;9.744;2022-12-07T09:24:40;4.90;99.90
18513;DHT22;9385;48.380;9.744;2022-12-07T09:27:08;5.00;99.90
18513;DHT22;9385;48.380;9.744;2022-12-07T09:29:35;5.10;99.90
18513;DHT22;9385;48.380;9.744;2022-12-07T09:32:03;5.10;99.90
18513;DHT22;9385;48.380;9.744;2022-12-07T09:34:30;5.10;99.90
18513;DHT22;9385;48.380;9.744;2022-12-07T09:36:57;5.20;99.90
18513;DHT22;9385;48.380;9.744;2022-12-07T09:39:24;5.20;99.90
18513;DHT22;9385;48.380;9.744;2022-12-07T09:41:52;5.30;99.90
18513;DHT22;9385;48.380;9.744;2022-12-07T09:44:24;5.30;99.90
18513;DHT22;9385;48.380;9.744;2022-12-07T09:46:51;5.30;99.90
18513;DHT22;9385;48.380;9.744;2022-12-07T09:49:20;5.30;99.90
18513;DHT22;9385;48.380;9.744;2022-12-07T09:51:48;5.20;99.90
18513;DHT22;9385;48.380;9.744;2022-12-07T09:54:25;5.30;99.90
18513;DHT22;9385;48.380;9.744;2022-12-07T09:56:53;5.30;99.90
18513;DHT22;9385;48.380;9.744;2022-12-07T09:59:21;5.40;99.90
18513;DHT22;9385;48.380;9.744;2022-12-07T10:01:49;5.40;99.90
18513;DHT22;9385;48.380;9.744;2022-12-07T10:04:19;5.50;99.90
18513;DHT22;9385;48.380;9.744;2022-12-07T10:06:47;5.60;99.90
18513;DHT22;9385;48.380;9.744;2022-12-07T10:09:18;5.70;99.90
18513;DHT22;9385;48.380;9.744;2022-12-07T10:12:03;5.70;99.90
18513;DHT22;9385;48.380;9.744;2022-12-07T10:14:33;5.70;99.90
18513;DHT22;9385;48.380;9.744;2022-12-07T10:17:00;5.70;99.90
18513;DHT22;9385;48.380;9.744;2022-12-07T10:19:29;5.80;99.90
18513;DHT22;9385;48.380;9.744;2022-12-07T10:22:01;5.70;99.90
18513;DHT22;9385;48.380;9.744;2022-12-07T10:24:29;5.70;99.90
18513;DHT22;9385;48.380;9.744;2022-12-07T10:26:56;5.70;99.90
18513;DHT22;9385;48.380;9.744;2022-12-07T10:29:26;5.80;99.90
18513;DHT22;9385;48.380;9.744;2022-12-07T10:31:58;5.70;99.90
18513;DHT22;9385;48.380;9.744;2022-12-07T10:34:27;5.80;99.90
18513;DHT22;9385;48.380;9.744;2022-12-07T10:37:14;5.70;99.90
18513;DHT22;9385;48.380;9.744;2022-12-07T10:39:43;5.70;99.90
18513;DHT22;9385;48.380;9.744;2022-12-07T10:42:20;5.60;99.90
18513;DHT22;9385;48.380;9.744;2022-12-07T10:44:48;5.60;99.90
18513;DHT22;9385;48.380;9.744;2022-12-07T10:47:33;5.60;99.90
18513;DHT22;9385;48.380;9.744;2022-12-07T10:50:17;5.70;99.90
18513;DHT22;9385;48.380;9.744;2022-12-07T10:53:00;5.70;99.90
18513;DHT22;9385;48.380;9.744;2022-12-07T10:55:39;5.70;99.90
18513;DHT22;9385;48.380;9.744;2022-12-07T10:58:34;5.80;99.90
18513;DHT22;9385;48.380;9.744;2022-12-07T11:01:10;5.80;99.90
18513;DHT22;9385;48.380;9.744;2022-12-07T11:04:06;5.90;99.90
18513;DHT22;9385;48.380;9.744;2022-12-07T11:06:39;5.80;99.90
18513;DHT22;9385;48.380;9.744;2022-12-07T11:09:33;5.80;99.90
18513;DHT22;9385;48.380;9.744;2022-12-07T11:12:09;5.80;99.90
18513;DHT22;9385;48.380;9.744;2022-12-07T11:14:44;5.80;99.90
18513;DHT22;9385;48.380;9.744;2022-12-07T11:17:20;5.70;99.90
18513;DHT22;9385;48.380;9.744;2022-12-07T11:20:00;5.70;99.90
18513;DHT22;9385;48.380;9.744;2022-12-07T11:22:35;5.70;99.90
18513;DHT22;9385;48.380;9.744;2022-12-07T11:25:19;5.80;99.90
18513;DHT22;9385;48.380;9.744;2022-12-07T11:28:00;5.80;99.90
18513;DHT22;9385;48.380;9.744;2022-12-07T11:30:34;5.90;99.90
18513;DHT22;9385;48.380;9.744;2022-12-07T11:33:15;5.90;99.90
18513;DHT22;9385;48.380;9.744;2022-12-07T11:35:56;5.90;99.90
18513;DHT22;9385;48.380;9.744;2022-12-07T11:38:31;5.80;99.90
18513;DHT22;9385;48.380;9.744;2022-12-07T11:41:04;5.80;99.90
18513;DHT22;9385;48.380;9.744;2022-12-07T11:43:49;5.90;99.90
18513;DHT22;9385;48.380;9.744;2022-12-07T11:46:17;5.90;99.90
18513;DHT22;9385;48.380;9.744;2022-12-07T11:48:47;5.90;99.90
18513;DHT22;9385;48.380;9.744;2022-12-07T11:51:20;5.90;99.90
18513;DHT22;9385;48.380;9.744;2022-12-07T11:53:51;5.90;99.90
18513;DHT22;9385;48.380;9.744;2022-12-07T11:56:20;5.90;99.90
18513;DHT22;9385;48.380;9.744;2022-12-07T11:58:51;5.90;99.90
18513;DHT22;9385;48.380;9.744;2022-12-07T12:01:28;5.90;99.90
18513;DHT22;9385;48.380;9.744;2022-12-07T12:04:06;5.90;99.90
18513;DHT22;9385;48.380;9.744;2022-12-07T12:06:41;5.90;99.90
18513;DHT22;9385;48.380;9.744;2022-12-07T12:09:13;5.90;99.90
18513;DHT22;9385;48.380;9.744;2022-12-07T12:11:56;5.90;99.90
18513;DHT22;9385;48.380;9.744;2022-12-07T12:14:40;6.00;99.90
18513;DHT22;9385;48.380;9.744;2022-12-07T12:17:40;6.00;99.90
18513;DHT22;9385;48.380;9.744;2022-12-07T12:20:19;6.00;99.90
18513;DHT22;9385;48.380;9.744;2022-12-07T12:22:53;6.00;99.90
18513;DHT22;9385;48.380;9.744;2022-12-07T12:25:23;6.10;99.90
18513;DHT22;9385;48.380;9.744;2022-12-07T12:27:53;6.10;99.90
18513;DHT22;9385;48.380;9.744;2022-12-07T12:30:31;6.10;99.90
18513;DHT22;9385;48.380;9.744;2022-12-07T12:33:06;6.10;99.90
18513;DHT22;9385;48.380;9.744;2022-12-07T12:35:35;6.10;99.90
18513;DHT22;9385;48.380;9.744;2022-12-07T12:38:29;6.20;99.90
18513;DHT22;9385;48.380;9.744;2022-12-07T12:40:57;6.20;99.90
18513;DHT22;9385;48.380;9.744;2022-12-07T12:43:47;6.20;99.90
18513;DHT22;9385;48.380;9.744;2022-12-07T12:46:51;6.20;99.90
18513;DHT22;9385;48.380;9.744;2022-12-07T12:49:34;6.20;99.90
18513;DHT22;9385;48.380;9.744;2022-12-07T12:58:35;6.10;99.90
18513;DHT22;9385;48.380;9.744;2022-12-07T13:01:40;6.10;99.90
18513;DHT22;9385;48.380;9.744;2022-12-07T13:04:27;6.10;99.90
18513;DHT22;9385;48.380;9.744;2022-12-07T13:06:55;6.10;99.90
18513;DHT22;9385;48.380;9.744;2022-12-07T13:09:24;6.10;99.90
18513;DHT22;9385;48.380;9.744;2022-12-07T13:12:00;6.10;99.90
18513;DHT22;9385;48.380;9.744;2022-12-07T13:14:42;6.10;99.90
18513;DHT22;9385;48.380;9.744;2022-12-07T13:17:09;6.10;99.90
18513;DHT22;9385;48.380;9.744;2022-12-07T13:19:58;6.10;99.90
18513;DHT22;9385;48.380;9.744;2022-12-07T13:22:51;6.10;99.90
18513;DHT22;9385;48.380;9.744;2022-12-07T13:25:36;6.10;99.90
18513;DHT22;9385;48.380;9.744;2022-12-07T13:28:14;6.10;99.90
18513;DHT22;9385;48.380;9.744;2022-12-07T13:30:47;6.10;99.90
18513;DHT22;9385;48.380;9.744;2022-12-07T13:33:17;6.00;99.90
18513;DHT22;9385;48.380;9.744;2022-12-07T13:35:45;6.20;99.90
18513;DHT22;9385;48.380;9.744;2022-12-07T13:38:25;6.20;99.90
18513;DHT22;9385;48.380;9.744;2022-12-07T13:41:03;6.30;99.90
18513;DHT22;9385;48.380;9.744;2022-12-07T13:43:48;6.40;99.90
18513;DHT22;9385;48.380;9.744;2022-12-07T13:46:15;6.40;99.90
18513;DHT22;9385;48.380;9.744;2022-12-07T13:48:45;6.30;99.90
18513;DHT22;9385;48.380;9.744;2022-12-07T13:51:19;6.30;99.90
18513;DHT22;9385;48.380;9.744;2022-12-07T13:53:47;6.30;99.90
18513;DHT22;9385;48.380;9.744;2022-12-07T13:56:15;6.30;99.90
18513;DHT22;9385;48.380;9.744;2022-12-07T13:58:44;6.30;99.90
18513;DHT22;9385;48.380;9.744;2022-12-07T14:01:11;6.20;99.90
18513;DHT22;9385;48.380;9.744;2022-12-07T14:03:39;6.20;99.90
18513;DHT22;9385;48.380;9.744;2022-12-07T14:06:20;6.20;99.90
18513;DHT22;9385;48.380;9.744;2022-12-07T14:08:50;6.10;99.90
18513;DHT22;9385;48.380;9.744;2022-12-07T14:11:32;6.10;99.90
18513;DHT22;9385;48.380;9.744;2022-12-07T14:14:01;6.10;99.90
18513;DHT22;9385;48.380;9.744;2022-12-07T14:16:30;6.10;99.90
18513;DHT22;9385;48.380;9.744;2022-12-07T14:18:58;6.20;99.90
18513;DHT22;9385;48.380;9.744;2022-12-07T14:21:27;6.20;99.90
18513;DHT22;9385;48.380;9.744;2022-12-07T14:24:18;6.20;99.90
18513;DHT22;9385;48.380;9.744;2022-12-07T14:26:47;6.20;99.90
18513;DHT22;9385;48.380;9.744;2022-12-07T14:29:30;6.20;99.90
18513;DHT22;9385;48.380;9.744;2022-12-07T14:31:58;6.20;99.90
18513;DHT22;9385;48.380;9.744;2022-12-07T14:34:25;6.20;99.90
18513;DHT22;9385;48.380;9.744;2022-12-07T14:36:52;6.20;99.90
18513;DHT22;9385;48.380;9.744;2022-12-07T14:39:20;6.20;99.90
18513;DHT22;9385;48.380;9.744;2022-12-07T14:41:47;6.20;99.90
18513;DHT22;9385;48.380;9.744;2022-12-07T14:44:18;6.20;99.90
18513;DHT22;9385;48.380;9.744;2022-12-07T14:46:46;6.20;99.90
18513;DHT22;9385;48.380;9.744;2022-12-07T14:49:14;6.20;99.90
18513;DHT22;9385;48.380;9.744;2022-12-07T14:51:42;6.20;99.90
18513;DHT22;9385;48.380;9.744;2022-12-07T14:54:16;6.10;99.90
18513;DHT22;9385;48.380;9.744;2022-12-07T14:56:43;6.10;99.90
18513;DHT22;9385;48.380;9.744;2022-12-07T14:59:11;6.10;99.90
18513;DHT22;9385;48.380;9.744;2022-12-07T15:01:39;6.10;99.90
18513;DHT22;9385;48.380;9.744;2022-12-07T15:04:07;6.10;99.90
18513;DHT22;9385;48.380;9.744;2022-12-07T15:06:34;6.10;99.90
18513;DHT22;9385;48.380;9.744;2022-12-07T15:09:01;6.00;99.90
18513;DHT22;9385;48.380;9.744;2022-12-07T15:11:28;6.00;99.90
18513;DHT22;9385;48.380;9.744;2022-12-07T15:13:55;5.90;99.90
18513;DHT22;9385;48.380;9.744;2022-12-07T15:16:35;5.90;99.90
18513;DHT22;9385;48.380;9.744;2022-12-07T15:19:02;5.90;99.90
18513;DHT22;9385;48.380;9.744;2022-12-07T15:21:31;5.80;99.90
18513;DHT22;9385;48.380;9.744;2022-12-07T15:23:58;5.80;99.90
18513;DHT22;9385;48.380;9.744;2022-12-07T15:26:25;5.70;99.90
18513;DHT22;9385;48.380;9.744;2022-12-07T15:28:53;5.70;99.90
18513;DHT22;9385;48.380;9.744;2022-12-07T15:31:20;5.60;99.90
18513;DHT22;9385;48.380;9.744;2022-12-07T15:33:47;5.60;99.90
18513;DHT22;9385;48.380;9.744;2022-12-07T15:36:19;5.60;99.90
18513;DHT22;9385;48.380;9.744;2022-12-07T15:38:48;5.60;99.90
18513;DHT22;9385;48.380;9.744;2022-12-07T15:41:17;5.50;99.90
18513;DHT22;9385;48.380;9.744;2022-12-07T15:43:44;5.50;99.90
18513;DHT22;9385;48.380;9.744;2022-12-07T15:46:32;5.50;99.90
18513;DHT22;9385;48.380;9.744;2022-12-07T15:48:59;5.40;99.90
18513;DHT22;9385;48.380;9.744;2022-12-07T15:51:26;5.40;99.90
18513;DHT22;9385;48.380;9.744;2022-12-07T15:53:56;5.30;99.90
18513;DHT22;9385;48.380;9.744;2022-12-07T15:56:23;5.30;99.90
18513;DHT22;9385;48.380;9.744;2022-12-07T15:58:50;5.30;99.90
18513;DHT22;9385;48.380;9.744;2022-12-07T16:01:19;5.30;99.90
18513;DHT22;9385;48.380;9.744;2022-12-07T16:03:46;5.30;99.90
18513;DHT22;9385;48.380;9.744;2022-12-07T16:06:16;5.30;99.90
18513;DHT22;9385;48.380;9.744;2022-12-07T16:08:43;5.30;99.90
18513;DHT22;9385;48.380;9.744;2022-12-07T16:11:12;5.30;99.90
18513;DHT22;9385;48.380;9.744;2022-12-07T16:13:39;5.30;99.90
18513;DHT22;9385;48.380;9.744;2022-12-07T16:16:08;5.30;99.90
18513;DHT22;9385;48.380;9.744;2022-12-07T16:18:35;5.20;99.90
18513;DHT22;9385;48.380;9.744;2022-12-07T16:21:03;5.20;99.90
18513;DHT22;9385;48.380;9.744;2022-12-07T16:23:30;5.20;99.90
18513;DHT22;9385;48.380;9.744;2022-12-07T16:26:04;5.20;99.90
18513;DHT22;9385;48.380;9.744;2022-12-07T16:28:32;5.20;99.90
18513;DHT22;9385;48.380;9.744;2022-12-07T16:31:01;5.20;99.90
18513;DHT22;9385;48.380;9.744;2022-12-07T16:33:28;5.30;99.90